createdAt,value
2018-07-30T00:01:35.159Z,95034.13
2018-07-30T00:04:05.236Z,95030.09
2018-07-30T00:06:34.684Z,95031.69
2018-07-30T00:09:05.967Z,95029.19
2018-07-30T00:11:35.425Z,95030.21
2018-07-30T00:14:04.863Z,95030.31
2018-07-30T00:16:34.303Z,95023.99
2018-07-30T00:19:03.708Z,95030.43
2018-07-30T00:21:33.180Z,95035.79
2018-07-30T00:24:02.822Z,95029.96
2018-07-30T00:26:32.999Z,95032.70
2018-07-30T00:29:02.819Z,95037.88
2018-07-30T00:31:32.561Z,95041.72
2018-07-30T00:34:01.945Z,95042.71
2018-07-30T00:36:31.422Z,95043.84
2018-07-30T00:39:01.038Z,95045.03
2018-07-30T00:41:30.594Z,95044.15
2018-07-30T00:44:00.019Z,95043.02
2018-07-30T00:46:29.550Z,95048.58
2018-07-30T00:48:58.938Z,95044.73
2018-07-30T00:51:29.735Z,95054.36
2018-07-30T00:54:02.351Z,95052.72
2018-07-30T00:56:31.765Z,95046.38
2018-07-30T00:59:04.396Z,95051.76
2018-07-30T01:01:33.993Z,95054.98
2018-07-30T01:04:06.735Z,95060.34
2018-07-30T01:06:36.634Z,95053.13
2018-07-30T01:09:08.729Z,95047.86
2018-07-30T01:11:40.561Z,95057.70
2018-07-30T01:14:14.217Z,95051.05
2018-07-30T01:16:48.249Z,95051.41
2018-07-30T01:19:17.714Z,95055.20
2018-07-30T01:21:52.317Z,95053.66
2018-07-30T01:24:22.034Z,95058.17
2018-07-30T01:26:53.490Z,95055.08
2018-07-30T01:29:24.722Z,95059.55
2018-07-30T01:31:54.917Z,95053.59
2018-07-30T01:34:24.697Z,95059.30
2018-07-30T01:36:55.271Z,95060.03
2018-07-30T01:39:27.161Z,95065.39
2018-07-30T01:41:59.702Z,95061.18
2018-07-30T01:44:31.284Z,95052.34
2018-07-30T01:47:01.350Z,95059.00
2018-07-30T01:49:32.232Z,95058.55
2018-07-30T01:52:02.117Z,95058.84
2018-07-30T01:54:33.613Z,95064.65
2018-07-30T01:57:06.357Z,95070.75
2018-07-30T01:59:36.967Z,95069.77
2018-07-30T02:02:07.578Z,95068.50
2018-07-30T02:04:38.656Z,95067.67
2018-07-30T02:07:09.622Z,95070.09
2018-07-30T02:09:43.301Z,95067.73
2018-07-30T02:12:15.378Z,95067.58
2018-07-30T02:14:47.643Z,95070.41
2018-07-30T02:17:19.881Z,95070.92
2018-07-30T02:19:51.921Z,95064.20
2018-07-30T02:22:22.930Z,95071.24
2018-07-30T02:24:53.280Z,95069.37
2018-07-30T02:27:23.629Z,95064.49
2018-07-30T02:29:54.024Z,95065.98
2018-07-30T02:32:28.343Z,95067.64
2018-07-30T02:35:00.927Z,95068.45
2018-07-30T02:37:33.933Z,95073.99
2018-07-30T02:40:06.905Z,95075.61
2018-07-30T02:42:39.978Z,95067.36
2018-07-30T02:45:12.506Z,95073.45
2018-07-30T02:47:41.999Z,95071.84
2018-07-30T02:50:13.477Z,95074.30
2018-07-30T02:52:46.982Z,95072.44
2018-07-30T02:55:17.106Z,95074.56
2018-07-30T02:57:46.754Z,95074.70
2018-07-30T03:00:33.614Z,95080.42
2018-07-30T03:03:04.960Z,95071.16
2018-07-30T03:05:36.187Z,95073.45
2018-07-30T03:08:06.149Z,95075.64
2018-07-30T03:10:36.382Z,95078.59
2018-07-30T03:13:06.377Z,95084.11
2018-07-30T03:15:39.791Z,95076.87
2018-07-30T03:18:09.637Z,95076.23
2018-07-30T03:20:40.319Z,95072.75
2018-07-30T03:23:10.782Z,95071.70
2018-07-30T03:25:40.656Z,95064.88
2018-07-30T03:28:10.032Z,95069.24
2018-07-30T03:30:40.232Z,95063.14
2018-07-30T03:33:11.235Z,95063.53
2018-07-30T03:35:45.828Z,95059.73
2018-07-30T03:38:15.747Z,95059.45
2018-07-30T03:43:30.590Z,95061.05
2018-07-30T03:46:03.140Z,95068.08
2018-07-30T03:48:37.082Z,95072.22
2018-07-30T03:51:08.397Z,95069.97
2018-07-30T03:53:41.310Z,95065.44
2018-07-30T03:56:15.864Z,95071.20
2018-07-30T03:58:49.438Z,95069.86
2018-07-30T04:01:22.906Z,95071.91
2018-07-30T04:03:53.588Z,95074.02
2018-07-30T04:06:26.998Z,95070.48
2018-07-30T04:09:02.162Z,95073.39
2018-07-30T04:11:31.612Z,95075.33
2018-07-30T04:14:01.069Z,95073.62
2018-07-30T04:16:30.466Z,95076.33
2018-07-30T04:18:59.878Z,95081.50
2018-07-30T04:21:29.887Z,95075.45
2018-07-30T04:23:59.313Z,95078.00
2018-07-30T04:26:28.654Z,95076.13
2018-07-30T04:28:58.068Z,95079.70
2018-07-30T04:31:27.593Z,95083.19
2018-07-30T04:33:58.050Z,95079.78
2018-07-30T04:36:27.446Z,95080.97
2018-07-30T04:38:56.778Z,95085.50
2018-07-30T04:41:26.193Z,95082.77
2018-07-30T04:43:55.504Z,95081.34
2018-07-30T04:46:25.073Z,95075.09
2018-07-30T04:48:54.612Z,95074.11
2018-07-30T04:51:23.988Z,95065.98
2018-07-30T04:53:53.422Z,95064.44
2018-07-30T04:56:22.847Z,95067.28
2018-07-30T04:58:52.557Z,95066.07
2018-07-30T05:01:23.090Z,95071.19
2018-07-30T05:03:52.607Z,95069.44
2018-07-30T05:06:22.135Z,95067.48
2018-07-30T05:08:52.371Z,95073.06
2018-07-30T05:11:21.789Z,95071.67
2018-07-30T05:13:51.222Z,95074.75
2018-07-30T05:16:20.657Z,95074.03
2018-07-30T05:18:50.019Z,95069.77
2018-07-30T05:21:19.533Z,95077.95
2018-07-30T05:23:48.927Z,95076.92
2018-07-30T05:26:18.327Z,95075.02
2018-07-30T05:28:47.673Z,95082.80
2018-07-30T05:31:17.192Z,95079.27
2018-07-30T05:33:46.697Z,95084.72
2018-07-30T05:36:16.138Z,95083.10
2018-07-30T05:38:45.583Z,95087.05
2018-07-30T05:41:15.096Z,95086.42
2018-07-30T05:43:44.681Z,95083.76
2018-07-30T05:46:14.140Z,95084.87
2018-07-30T05:48:43.518Z,95083.66
2018-07-30T05:51:13.010Z,95083.32
2018-07-30T05:53:42.388Z,95084.03
2018-07-30T05:56:11.825Z,95093.02
2018-07-30T05:58:41.654Z,95089.97
2018-07-30T06:01:11.292Z,95090.30
2018-07-30T06:03:40.724Z,95090.72
2018-07-30T06:06:10.181Z,95091.47
2018-07-30T06:08:39.560Z,95090.98
2018-07-30T06:11:08.929Z,95095.63
2018-07-30T06:13:38.492Z,95098.02
2018-07-30T06:16:08.103Z,95101.30
2018-07-30T06:18:37.512Z,95100.16
2018-07-30T06:21:06.894Z,95106.52
2018-07-30T06:23:36.329Z,95102.75
2018-07-30T06:26:05.890Z,95102.34
2018-07-30T06:28:35.466Z,95107.30
2018-07-30T06:31:04.968Z,95108.98
2018-07-30T06:33:34.507Z,95122.47
2018-07-30T06:36:03.916Z,95116.00
2018-07-30T06:38:33.379Z,95118.44
2018-07-30T06:41:02.764Z,95117.73
2018-07-30T06:43:32.390Z,95110.34
2018-07-30T06:46:01.857Z,95113.99
2018-07-30T06:48:31.367Z,95112.14
2018-07-30T06:51:00.785Z,95111.91
2018-07-30T06:53:30.409Z,95117.06
2018-07-30T06:55:59.807Z,95115.04
2018-07-30T06:58:29.245Z,95113.81
2018-07-30T07:01:00.063Z,95124.63
2018-07-30T07:03:29.654Z,95125.08
2018-07-30T07:05:59.003Z,95128.98
2018-07-30T07:08:28.389Z,95132.37
2018-07-30T07:10:57.845Z,95129.47
2018-07-30T07:13:27.220Z,95132.72
2018-07-30T07:15:56.678Z,95133.66
2018-07-30T07:18:26.000Z,95134.52
2018-07-30T07:20:55.475Z,95133.36
2018-07-30T07:23:24.858Z,95132.84
2018-07-30T07:25:54.287Z,95135.08
2018-07-30T07:28:23.921Z,95134.27
2018-07-30T07:30:53.285Z,95136.30
2018-07-30T07:33:22.681Z,95137.75
2018-07-30T07:35:52.195Z,95139.46
2018-07-30T07:38:21.851Z,95140.81
2018-07-30T07:40:51.381Z,95135.70
2018-07-30T07:43:20.880Z,95134.98
2018-07-30T07:45:50.519Z,95144.27
2018-07-30T07:48:20.083Z,95145.58
2018-07-30T07:50:49.673Z,95145.80
2018-07-30T07:53:19.464Z,95144.14
2018-07-30T07:55:48.922Z,95141.21
2018-07-30T07:58:18.506Z,95138.37
2018-07-30T08:00:47.930Z,95143.44
2018-07-30T08:03:17.435Z,95138.73
2018-07-30T08:05:47.020Z,95137.14
2018-07-30T08:08:16.543Z,95129.64
2018-07-30T08:10:45.929Z,95141.71
2018-07-30T08:13:15.448Z,95137.70
2018-07-30T08:15:44.855Z,95132.86
2018-07-30T08:18:14.586Z,95138.31
2018-07-30T08:20:43.997Z,95135.25
2018-07-30T08:23:14.000Z,95146.27
2018-07-30T08:25:44.122Z,95125.97
2018-07-30T08:28:13.683Z,95143.66
2018-07-30T08:30:43.178Z,95143.44
2018-07-30T08:33:12.832Z,95140.19
2018-07-30T08:35:42.332Z,95141.69
2018-07-30T08:38:11.744Z,95147.25
2018-07-30T08:40:41.304Z,95146.52
2018-07-30T08:43:11.772Z,95151.81
2018-07-30T08:45:41.187Z,95152.84
2018-07-30T08:48:10.773Z,95153.79
2018-07-30T08:50:40.184Z,95150.29
2018-07-30T08:53:09.733Z,95155.34
2018-07-30T08:55:39.146Z,95150.38
2018-07-30T08:58:08.630Z,95155.66
2018-07-30T09:00:38.087Z,95153.89
2018-07-30T09:03:07.688Z,95156.70
2018-07-30T09:05:37.171Z,95161.05
2018-07-30T09:08:06.823Z,95164.47
2018-07-30T09:10:36.196Z,95163.69
2018-07-30T09:13:05.932Z,95164.14
2018-07-30T09:15:35.444Z,95169.53
2018-07-30T09:18:05.118Z,95163.52
2018-07-30T09:20:34.655Z,95162.88
2018-07-30T09:23:04.092Z,95170.23
2018-07-30T09:25:35.243Z,95171.34
2018-07-30T09:28:05.171Z,95167.03
2018-07-30T09:30:34.659Z,95168.66
2018-07-30T09:33:04.877Z,95171.28
2018-07-30T09:35:34.637Z,95173.36
2018-07-30T09:38:04.149Z,95172.12
2018-07-30T09:40:33.818Z,95166.37
2018-07-30T09:43:03.673Z,95162.09
2018-07-30T09:45:33.462Z,95167.14
2018-07-30T09:48:03.178Z,95165.14
2018-07-30T09:50:32.561Z,95163.86
2018-07-30T09:53:02.094Z,95166.62
2018-07-30T09:55:32.590Z,95165.30
2018-07-30T09:58:01.996Z,95166.97
2018-07-30T10:00:36.840Z,95162.31
2018-07-30T10:03:06.632Z,95158.30
2018-07-30T10:05:37.214Z,95162.67
2018-07-30T10:08:06.578Z,95161.46
2018-07-30T10:10:36.157Z,95156.09
2018-07-30T10:13:05.580Z,95158.86
2018-07-30T10:15:35.029Z,95159.44
2018-07-30T10:18:05.864Z,95164.02
2018-07-30T10:20:35.258Z,95164.69
2018-07-30T10:23:04.617Z,95162.33
2018-07-30T10:25:34.003Z,95165.08
2018-07-30T10:28:03.500Z,95157.53
2018-07-30T10:30:32.889Z,95152.75
2018-07-30T10:33:02.617Z,95156.66
2018-07-30T10:35:32.062Z,95153.16
2018-07-30T10:38:01.520Z,95151.31
2018-07-30T10:40:30.866Z,95154.38
2018-07-30T10:43:00.205Z,95154.25
2018-07-30T10:45:29.682Z,95156.47
2018-07-30T10:47:59.090Z,95158.69
2018-07-30T10:50:28.485Z,95154.25
2018-07-30T10:52:57.963Z,95153.12
2018-07-30T10:55:27.478Z,95144.23
2018-07-30T10:57:56.966Z,95145.32
2018-07-30T11:00:26.415Z,95146.41
2018-07-30T11:02:55.887Z,95148.38
2018-07-30T11:05:25.449Z,95146.93
2018-07-30T11:07:54.860Z,95150.93
2018-07-30T11:10:24.269Z,95142.16
2018-07-30T11:12:53.799Z,95137.39
2018-07-30T11:15:23.409Z,95138.48
2018-07-30T11:17:53.076Z,95130.59
2018-07-30T11:20:22.538Z,95136.34
2018-07-30T11:22:52.337Z,95134.34
2018-07-30T11:25:21.885Z,95132.71
2018-07-30T11:27:51.391Z,95138.49
2018-07-30T11:30:20.770Z,95135.85
2018-07-30T11:32:50.298Z,95137.98
2018-07-30T11:35:19.765Z,95137.30
2018-07-30T11:37:49.334Z,95136.52
2018-07-30T11:40:18.757Z,95135.06
2018-07-30T11:42:48.245Z,95136.86
2018-07-30T11:45:17.699Z,95135.63
2018-07-30T11:47:47.220Z,95136.92
2018-07-30T11:50:16.852Z,95136.49
2018-07-30T11:52:46.288Z,95136.83
2018-07-30T11:55:15.686Z,95131.33
2018-07-30T11:57:45.176Z,95128.70
2018-07-30T12:00:14.618Z,95133.08
2018-07-30T12:02:44.179Z,95124.04
2018-07-30T12:05:13.617Z,95127.61
2018-07-30T12:07:43.044Z,95130.16
2018-07-30T12:10:12.907Z,95136.11
2018-07-30T12:12:42.498Z,95139.44
2018-07-30T12:15:12.043Z,95134.12
2018-07-30T12:17:41.372Z,95133.48
2018-07-30T12:20:10.733Z,95129.73
2018-07-30T12:22:40.042Z,95128.33
2018-07-30T12:25:09.420Z,95124.82
2018-07-30T12:27:38.814Z,95125.06
2018-07-30T12:30:08.536Z,95124.36
2018-07-30T12:32:37.976Z,95123.28
2018-07-30T12:35:08.381Z,95117.20
2018-07-30T12:37:37.700Z,95121.23
2018-07-30T12:40:07.221Z,95125.88
2018-07-30T12:42:37.972Z,95123.56
2018-07-30T12:45:07.330Z,95117.84
2018-07-30T12:47:36.677Z,95123.87
2018-07-30T12:50:06.162Z,95121.44
2018-07-30T12:52:35.637Z,95121.48
2018-07-30T12:55:05.268Z,95118.96
2018-07-30T12:57:34.701Z,95117.83
2018-07-30T13:00:04.116Z,95114.45
2018-07-30T13:02:33.493Z,95111.23
2018-07-30T13:05:02.905Z,95108.34
2018-07-30T13:07:32.314Z,95104.99
2018-07-30T13:10:01.729Z,95108.12
2018-07-30T13:12:31.161Z,95103.97
2018-07-30T13:15:00.659Z,95104.91
2018-07-30T13:17:30.069Z,95096.21
2018-07-30T13:19:59.590Z,95095.48
2018-07-30T13:22:29.245Z,95095.13
2018-07-30T13:24:58.750Z,95095.16
2018-07-30T13:27:28.633Z,95091.81
2018-07-30T13:29:58.150Z,95097.95
2018-07-30T13:32:27.793Z,95088.98
2018-07-30T13:34:57.321Z,95085.73
2018-07-30T13:37:26.765Z,95082.73
2018-07-30T13:39:56.190Z,95082.03
2018-07-30T13:42:25.701Z,95087.27
2018-07-30T13:44:55.169Z,95085.59
2018-07-30T13:47:24.697Z,95076.27
2018-07-30T13:49:54.122Z,95070.22
2018-07-30T13:52:23.577Z,95078.27
2018-07-30T13:54:53.085Z,95077.61
2018-07-30T13:57:22.544Z,95075.89
2018-07-30T13:59:51.910Z,95075.89
2018-07-30T14:02:21.310Z,95079.84
2018-07-30T14:04:50.763Z,95081.62
2018-07-30T14:07:20.320Z,95082.47
2018-07-30T14:09:51.909Z,95078.95
2018-07-30T14:12:21.350Z,95083.22
2018-07-30T14:14:50.809Z,95074.73
2018-07-30T14:17:21.321Z,95076.87
2018-07-30T14:19:50.796Z,95075.56
2018-07-30T14:22:20.301Z,95075.73
2018-07-30T14:24:49.826Z,95079.33
2018-07-30T14:27:19.250Z,95074.58
2018-07-30T14:29:48.646Z,95075.05
2018-07-30T14:32:18.075Z,95079.48
2018-07-30T14:34:47.524Z,95080.14
2018-07-30T14:39:48.737Z,95081.23
2018-07-30T14:42:18.426Z,95075.67
2018-07-30T14:44:47.933Z,95071.72
2018-07-30T14:47:17.345Z,95074.95
2018-07-30T14:49:47.813Z,95069.39
2018-07-30T14:52:17.189Z,95067.59
2018-07-30T14:54:47.628Z,95069.81
2018-07-30T14:57:16.995Z,95066.88
2018-07-30T14:59:46.385Z,95072.15
2018-07-30T15:02:15.906Z,95071.59
2018-07-30T15:04:45.259Z,95066.48
2018-07-30T15:07:14.712Z,95068.14
2018-07-30T15:09:44.080Z,95066.20
2018-07-30T15:12:13.420Z,95060.20
2018-07-30T15:14:42.972Z,95058.83
2018-07-30T15:17:12.388Z,95064.19
2018-07-30T15:19:41.744Z,95064.09
2018-07-30T15:22:11.149Z,95061.14
2018-07-30T15:24:40.521Z,95059.39
2018-07-30T15:27:09.954Z,95050.55
2018-07-30T15:29:39.460Z,95050.59
2018-07-30T15:32:08.859Z,95052.48
2018-07-30T15:34:38.218Z,95049.94
2018-07-30T15:37:07.739Z,95048.12
2018-07-30T15:39:37.288Z,95049.05
2018-07-30T15:42:06.884Z,95052.41
2018-07-30T15:44:36.224Z,95049.18
2018-07-30T15:47:05.633Z,95051.22
2018-07-30T15:49:35.066Z,95052.02
2018-07-30T15:52:04.612Z,95054.52
2018-07-30T15:54:34.213Z,95052.59
2018-07-30T15:57:03.585Z,95053.87
2018-07-30T15:59:34.040Z,95050.39
2018-07-30T16:02:03.444Z,95051.68
2018-07-30T16:04:32.944Z,95059.70
2018-07-30T16:07:02.356Z,95051.04
2018-07-30T16:09:31.883Z,95056.76
2018-07-30T16:12:02.364Z,95055.02
2018-07-30T16:14:31.792Z,95052.27
2018-07-30T16:17:01.206Z,95053.94
2018-07-30T16:19:30.621Z,95055.42
2018-07-30T16:22:00.149Z,95055.44
2018-07-30T16:24:29.597Z,95056.30
2018-07-30T16:26:59.054Z,95055.16
2018-07-30T16:29:28.416Z,95047.66
2018-07-30T16:31:58.900Z,95047.34
2018-07-30T16:34:28.454Z,95044.80
2018-07-30T16:36:57.888Z,95043.55
2018-07-30T16:39:27.289Z,95047.01
2018-07-30T16:41:56.717Z,95050.22
2018-07-30T16:44:26.045Z,95046.08
2018-07-30T16:46:55.552Z,95047.50
2018-07-30T16:49:24.974Z,95042.01
2018-07-30T16:51:54.360Z,95047.44
2018-07-30T16:54:23.763Z,95048.32
2018-07-30T16:56:53.129Z,95045.83
2018-07-30T16:59:22.606Z,95040.28
2018-07-30T17:01:52.016Z,95045.00
2018-07-30T17:04:21.404Z,95045.30
2018-07-30T17:06:50.817Z,95046.09
2018-07-30T17:09:20.193Z,95040.83
2018-07-30T17:11:49.758Z,95037.50
2018-07-30T17:14:19.271Z,95045.00
2018-07-30T17:16:48.773Z,95047.28
2018-07-30T17:19:18.220Z,95042.73
2018-07-30T17:21:47.668Z,95045.02
2018-07-30T17:24:17.155Z,95041.86
2018-07-30T17:26:46.517Z,95047.98
2018-07-30T17:29:15.917Z,95047.66
2018-07-30T17:31:45.327Z,95057.72
2018-07-30T17:34:14.695Z,95057.58
2018-07-30T17:36:44.097Z,95059.73
2018-07-30T17:39:13.664Z,95069.70
2018-07-30T17:41:43.044Z,95069.87
2018-07-30T17:44:12.446Z,95068.91
2018-07-30T17:46:41.872Z,95068.14
2018-07-30T17:49:11.279Z,95075.27
2018-07-30T17:51:40.811Z,95074.27
2018-07-30T17:54:10.133Z,95075.16
2018-07-30T17:56:39.527Z,95074.25
2018-07-30T17:59:08.853Z,95076.59
2018-07-30T18:01:38.223Z,95073.72
2018-07-30T18:04:07.529Z,95078.30
2018-07-30T18:06:43.232Z,95083.42
2018-07-30T18:09:12.588Z,95084.48
2018-07-30T18:11:42.180Z,95086.42
2018-07-30T18:14:11.504Z,95081.44
2018-07-30T18:16:40.967Z,95078.83
2018-07-30T18:19:10.510Z,95083.63
2018-07-30T18:21:39.965Z,95081.01
2018-07-30T18:24:09.398Z,95081.89
2018-07-30T18:26:38.741Z,95086.22
2018-07-30T18:29:08.093Z,95080.54
2018-07-30T18:31:37.565Z,95085.13
2018-07-30T18:34:06.889Z,95086.84
2018-07-30T18:36:36.281Z,95083.38
2018-07-30T18:39:07.019Z,95089.14
2018-07-30T18:41:36.429Z,95090.09
2018-07-30T18:44:05.870Z,95084.83
2018-07-30T18:46:35.330Z,95084.01
2018-07-30T18:49:04.632Z,95092.25
2018-07-30T18:51:34.102Z,95095.04
2018-07-30T18:54:03.668Z,95093.98
2018-07-30T18:56:33.232Z,95098.84
2018-07-30T18:59:02.578Z,95100.18
2018-07-30T19:01:31.907Z,95108.70
2018-07-30T19:04:01.277Z,95104.61
2018-07-30T19:06:30.686Z,95111.57
2018-07-30T19:09:00.046Z,95110.05
2018-07-30T19:11:29.551Z,95110.75
2018-07-30T19:13:58.957Z,95110.64
2018-07-30T19:16:28.349Z,95110.50
2018-07-30T19:18:57.753Z,95114.73
2018-07-30T19:21:27.078Z,95113.05
2018-07-30T19:23:56.484Z,95121.78
2018-07-30T19:26:25.856Z,95121.63
2018-07-30T19:28:55.267Z,95116.66
2018-07-30T19:31:24.617Z,95126.39
2018-07-30T19:33:54.008Z,95120.10
2018-07-30T19:36:23.420Z,95124.63
2018-07-30T19:38:52.948Z,95127.45
2018-07-30T19:41:22.248Z,95125.69
2018-07-30T19:43:51.600Z,95123.87
2018-07-30T19:46:20.956Z,95125.14
2018-07-30T19:48:50.289Z,95128.24
2018-07-30T19:51:19.707Z,95129.53
2018-07-30T19:53:49.154Z,95136.31
2018-07-30T19:56:18.600Z,95134.58
2018-07-30T19:58:48.071Z,95138.56
2018-07-30T20:01:17.287Z,95137.59
2018-07-30T20:03:46.685Z,95139.68
2018-07-30T20:06:16.026Z,95138.48
2018-07-30T20:08:45.526Z,95143.88
2018-07-30T20:11:14.900Z,95142.64
2018-07-30T20:13:44.166Z,95138.89
2018-07-30T20:16:13.566Z,95141.13
2018-07-30T20:18:43.518Z,95144.20
2018-07-30T20:21:13.114Z,95141.47
2018-07-30T20:23:42.672Z,95143.41
2018-07-30T20:26:12.122Z,95139.19
2018-07-30T20:28:41.580Z,95142.32
2018-07-30T20:31:10.967Z,95147.95
2018-07-30T20:33:40.421Z,95151.33
2018-07-30T20:36:09.761Z,95150.57
2018-07-30T20:38:39.078Z,95147.83
2018-07-30T20:41:08.789Z,95152.79
2018-07-30T20:43:38.131Z,95154.92
2018-07-30T20:46:07.722Z,95153.90
2018-07-30T20:48:37.134Z,95159.57
2018-07-30T20:51:06.413Z,95159.89
2018-07-30T20:53:35.790Z,95161.48
2018-07-30T20:56:05.065Z,95171.70
2018-07-30T20:58:34.440Z,95168.92
2018-07-30T21:01:03.845Z,95165.61
2018-07-30T21:03:33.148Z,95162.77
2018-07-30T21:06:02.443Z,95161.50
2018-07-30T21:08:31.809Z,95156.52
2018-07-30T21:11:01.194Z,95164.84
2018-07-30T21:13:30.483Z,95157.08
2018-07-30T21:15:59.779Z,95165.16
2018-07-30T21:18:29.101Z,95167.83
2018-07-30T21:20:58.441Z,95165.98
2018-07-30T21:23:27.814Z,95170.28
2018-07-30T21:25:57.168Z,95160.83
2018-07-30T21:28:26.531Z,95158.00
2018-07-30T21:30:55.885Z,95161.97
2018-07-30T21:33:25.222Z,95160.55
2018-07-30T21:35:54.516Z,95164.97
2018-07-30T21:38:23.841Z,95164.28
2018-07-30T21:40:53.276Z,95172.81
2018-07-30T21:43:22.531Z,95164.98
2018-07-30T21:45:51.820Z,95167.95
2018-07-30T21:48:21.143Z,95166.06
2018-07-30T21:50:50.478Z,95163.52
2018-07-30T21:53:19.827Z,95166.61
2018-07-30T21:55:49.147Z,95162.78
2018-07-30T21:58:18.479Z,95160.33
2018-07-30T22:00:53.091Z,95159.75
2018-07-30T22:03:22.515Z,95163.64
2018-07-30T22:05:58.917Z,95172.38
2018-07-30T22:08:28.664Z,95167.55
2018-07-30T22:10:58.138Z,95164.53
2018-07-30T22:13:27.560Z,95155.80
2018-07-30T22:15:56.877Z,95162.61
2018-07-30T22:18:26.324Z,95161.55
2018-07-30T22:20:56.109Z,95165.52
2018-07-30T22:23:25.508Z,95165.30
2018-07-30T22:25:54.913Z,95163.72
2018-07-30T22:28:24.222Z,95166.51
2018-07-30T22:30:53.623Z,95162.87
2018-07-30T22:33:23.091Z,95164.54
2018-07-30T22:35:52.561Z,95166.48
2018-07-30T22:38:21.910Z,95163.02
2018-07-30T22:40:51.211Z,95162.81
2018-07-30T22:43:20.558Z,95161.31
2018-07-30T22:45:49.900Z,95158.20
2018-07-30T22:48:19.264Z,95159.00
2018-07-30T22:50:48.526Z,95159.37
2018-07-30T22:53:17.836Z,95162.36
2018-07-30T22:55:47.224Z,95160.34
2018-07-30T22:58:16.556Z,95159.63
2018-07-30T23:00:45.957Z,95166.95
2018-07-30T23:03:15.275Z,95154.25
2018-07-30T23:05:44.613Z,95157.75
2018-07-30T23:08:13.997Z,95149.30
2018-07-30T23:10:43.309Z,95146.15
2018-07-30T23:13:12.596Z,95148.45
2018-07-30T23:15:41.888Z,95149.51
2018-07-30T23:18:11.225Z,95149.69
2018-07-30T23:20:40.527Z,95147.55
2018-07-30T23:23:09.845Z,95149.14
2018-07-30T23:25:39.107Z,95150.75
2018-07-30T23:28:08.378Z,95151.88
2018-07-30T23:30:37.667Z,95140.05
2018-07-30T23:33:07.020Z,95131.23
2018-07-30T23:35:36.377Z,95140.13
2018-07-30T23:38:05.721Z,95141.48
2018-07-30T23:40:34.993Z,95135.61
2018-07-30T23:43:04.309Z,95133.41
2018-07-30T23:45:33.576Z,95135.31
2018-07-30T23:48:02.924Z,95132.84
2018-07-30T23:50:32.231Z,95124.44
2018-07-30T23:53:01.552Z,95132.34
2018-07-30T23:55:30.809Z,95132.73
2018-07-30T23:58:00.093Z,95131.43
